createdAt,value
2019-04-26T06:53:28.533Z,54.30
2019-04-26T07:05:15.674Z,65.50
2019-04-26T07:08:06.724Z,62.90
2019-04-26T07:10:47.908Z,64.70
2019-04-26T07:13:43.642Z,66.50
2019-04-26T07:16:23.205Z,68.20
2019-04-26T07:19:01.182Z,69.50
2019-04-26T07:21:40.905Z,67.20
2019-04-26T07:24:25.656Z,66.00
2019-04-26T07:27:13.575Z,67.00
2019-04-26T07:30:05.183Z,67.30
2019-04-26T07:32:49.109Z,67.40
2019-04-26T07:35:21.083Z,69.90
2019-04-26T07:37:55.537Z,69.80
2019-04-26T07:40:58.921Z,68.70
2019-04-26T07:43:46.996Z,67.10
2019-04-26T07:46:18.583Z,65.80
2019-04-26T08:20:42.247Z,67.50
2019-04-26T08:23:35.105Z,67.70
2019-04-26T08:25:41.511Z,69.10
2019-04-26T08:28:10.023Z,70.70
2019-04-26T08:30:44.887Z,72.40
2019-04-26T08:33:14.715Z,67.70
2019-04-26T08:35:44.332Z,65.40
2019-04-26T08:38:19.483Z,67.10
2019-04-26T08:40:43.458Z,69.60
2019-04-26T08:43:30.870Z,67.50
2019-04-26T08:46:11.789Z,69.30
2019-04-26T08:48:44.601Z,68.10
2019-04-26T08:51:20.719Z,67.80
2019-04-26T08:53:49.868Z,69.30
2019-04-26T08:56:24.315Z,70.20
2019-04-26T08:58:56.041Z,71.30
2019-04-26T09:01:26.042Z,71.10
2019-04-26T09:03:56.017Z,68.70
2019-04-26T09:06:32.007Z,65.70
2019-04-26T09:09:00.277Z,67.00
2019-04-26T09:11:33.418Z,70.30
2019-04-26T09:13:58.628Z,70.20
2019-04-26T09:16:26.881Z,68.80
2019-04-26T09:18:59.367Z,70.20
2019-04-26T09:21:32.823Z,68.60
2019-04-26T09:24:08.145Z,67.40
2019-04-26T09:26:37.051Z,68.30
2019-04-26T09:29:15.884Z,68.90
2019-04-26T09:31:50.516Z,70.00
2019-04-26T09:34:41.419Z,69.30
2019-04-26T09:37:09.955Z,69.30
2019-04-26T09:39:41.713Z,70.10
2019-04-26T09:42:18.353Z,69.90
2019-04-26T09:44:48.250Z,67.50
2019-04-26T09:47:20.799Z,70.20
2019-04-26T09:49:50.786Z,64.20
2019-04-26T09:52:20.957Z,68.30
2019-04-26T09:54:49.447Z,66.80
2019-04-26T09:57:18.008Z,67.00
2019-04-26T09:59:46.283Z,65.50
2019-04-26T10:02:14.607Z,63.80
2019-04-26T10:04:42.892Z,64.40
2019-04-26T10:07:11.289Z,67.20
2019-04-26T10:09:38.874Z,66.60
2019-04-26T10:12:14.941Z,66.00
2019-04-26T10:14:46.488Z,64.80
2019-04-26T10:17:18.970Z,65.40
2019-04-26T10:19:52.947Z,65.60
2019-04-26T10:22:22.583Z,62.70
2019-04-26T10:24:50.840Z,61.80
2019-04-26T10:27:19.178Z,59.00
2019-04-26T10:29:46.850Z,58.60
2019-04-26T10:32:15.123Z,58.50
2019-04-26T10:34:47.501Z,57.80
2019-04-26T10:37:13.457Z,57.70
2019-04-26T10:39:41.755Z,57.40
2019-04-26T10:42:10.059Z,57.50
2019-04-26T10:44:39.893Z,59.00
2019-04-26T10:47:07.694Z,56.50
2019-04-26T10:49:36.340Z,54.80
2019-04-26T10:52:07.231Z,57.80
2019-04-26T10:54:36.810Z,56.10
2019-04-26T10:57:07.170Z,54.60
2019-04-26T10:59:44.203Z,53.70
2019-04-26T11:02:08.509Z,53.90
2019-04-26T11:04:37.387Z,54.10
2019-04-26T11:07:06.781Z,57.40
2019-04-26T11:09:35.386Z,55.00
2019-04-26T11:12:03.710Z,57.90
2019-04-26T11:14:31.311Z,56.30
2019-04-26T11:16:59.661Z,56.60
2019-04-26T11:19:27.247Z,55.00
2019-04-26T11:21:56.012Z,50.60
2019-04-26T11:24:25.908Z,50.10
2019-04-26T11:26:55.263Z,51.80
2019-04-26T11:29:24.900Z,50.10
2019-04-26T11:31:54.185Z,50.50
2019-04-26T11:34:23.645Z,48.10
2019-04-26T11:36:52.734Z,47.70
2019-04-26T11:39:21.110Z,46.60
2019-04-26T11:41:49.490Z,45.20
2019-04-26T11:44:17.077Z,42.00
2019-04-26T11:46:45.618Z,41.90
2019-04-26T11:49:14.369Z,41.40
2019-04-26T11:51:42.732Z,41.90
2019-04-26T11:54:10.329Z,41.70
2019-04-26T11:56:38.832Z,42.00
2019-04-26T11:59:07.206Z,41.00
2019-04-26T12:01:36.703Z,42.00
2019-04-26T12:04:23.043Z,40.30
2019-04-26T12:06:52.969Z,41.00
2019-04-26T12:09:39.027Z,41.50
2019-04-26T12:12:09.267Z,40.00
2019-04-26T12:14:37.466Z,40.40
2019-04-26T12:17:05.832Z,38.10
2019-04-26T12:19:34.332Z,38.20
2019-04-26T12:22:04.171Z,38.00
2019-04-26T12:24:34.533Z,37.80
2019-04-26T12:27:04.090Z,38.30
2019-04-26T12:29:32.402Z,37.40
2019-04-26T12:32:00.052Z,37.90
2019-04-26T12:34:28.379Z,38.00
2019-04-26T12:36:55.953Z,38.60
2019-04-26T12:39:24.650Z,37.30
2019-04-26T12:41:52.929Z,36.20
2019-04-26T12:44:21.405Z,35.90
2019-04-26T12:46:51.399Z,36.20
2019-04-26T12:49:20.253Z,35.80
2019-04-26T12:52:01.627Z,37.20
2019-04-26T12:54:31.341Z,36.10
2019-04-26T12:57:01.567Z,36.60
2019-04-26T12:59:29.779Z,36.80
2019-04-26T13:02:05.431Z,36.90
2019-04-26T13:04:35.998Z,38.30
2019-04-26T13:07:22.743Z,38.10
2019-04-26T13:09:43.384Z,37.90
2019-04-26T13:12:19.071Z,37.80
2019-04-26T13:14:51.902Z,38.00
2019-04-26T13:17:31.334Z,37.10
2019-04-26T13:20:00.609Z,38.60
2019-04-26T13:22:31.882Z,38.30
2019-04-26T13:24:58.924Z,38.60
2019-04-26T13:27:26.525Z,38.80
2019-04-26T13:30:02.563Z,40.00
2019-04-26T13:32:25.547Z,39.00
2019-04-26T13:34:53.166Z,39.90
2019-04-26T13:37:21.436Z,38.70
2019-04-26T13:39:51.282Z,37.40
2019-04-26T13:42:19.762Z,38.30
2019-04-26T13:44:52.508Z,37.90
2019-04-26T13:47:38.908Z,37.70
2019-04-26T13:50:12.730Z,39.50
2019-04-26T13:52:41.288Z,39.30
2019-04-26T13:55:09.625Z,38.80
2019-04-26T13:57:40.141Z,39.20
2019-04-26T14:00:11.713Z,37.30
2019-04-26T14:02:39.803Z,38.20
2019-04-26T14:05:11.176Z,38.80
2019-04-26T14:07:38.038Z,37.70
2019-04-26T14:10:05.839Z,38.30
2019-04-26T14:12:34.167Z,38.10
2019-04-26T14:15:04.524Z,38.00
2019-04-26T14:17:32.459Z,37.40
2019-04-26T14:20:00.716Z,36.60
2019-04-26T14:22:32.924Z,37.50
2019-04-26T14:25:02.827Z,38.60
2019-04-26T14:27:35.390Z,38.40
2019-04-26T14:30:06.553Z,38.10
2019-04-26T14:32:35.223Z,39.30
2019-04-26T14:35:04.143Z,37.60
2019-04-26T14:37:32.734Z,38.70
2019-04-26T14:40:15.961Z,38.90
2019-04-26T14:42:34.485Z,38.30
2019-04-26T14:45:02.294Z,36.50
2019-04-26T14:47:32.021Z,38.50
2019-04-26T14:50:13.083Z,39.60
2019-04-26T14:52:30.304Z,38.60
2019-04-26T14:54:58.639Z,40.60
2019-04-26T14:57:31.493Z,37.80
2019-04-26T15:00:00.301Z,39.10
2019-04-26T15:02:33.440Z,38.00
2019-04-26T15:05:09.586Z,37.60
2019-04-26T15:07:48.563Z,37.60
2019-04-26T15:10:10.939Z,37.20
2019-04-26T15:12:46.103Z,36.90
2019-04-26T15:15:08.012Z,38.50
2019-04-26T15:17:35.580Z,37.60
2019-04-26T15:20:05.306Z,38.20
2019-04-26T15:22:33.575Z,38.30
2019-04-26T15:25:07.724Z,38.90
2019-04-26T15:27:36.227Z,38.80
2019-04-26T15:30:05.683Z,37.50
2019-04-26T15:32:35.431Z,38.40
2019-04-26T15:35:05.117Z,39.30
2019-04-26T15:37:34.053Z,38.20
2019-04-26T15:40:06.692Z,39.00
2019-04-26T15:42:45.455Z,39.80
2019-04-26T15:45:25.295Z,40.30
2019-04-26T15:47:58.243Z,39.20
2019-04-26T15:50:28.243Z,38.40
2019-04-26T15:52:56.599Z,37.70
2019-04-26T15:55:24.182Z,38.30
2019-04-26T15:57:53.086Z,39.00
2019-04-26T16:00:22.463Z,39.60
2019-04-26T16:02:50.818Z,38.90
2019-04-26T16:05:19.075Z,39.20
2019-04-26T16:07:47.372Z,39.80
2019-04-26T16:10:14.955Z,39.90
2019-04-26T16:12:43.211Z,40.00
2019-04-26T16:15:14.840Z,39.30
2019-04-26T16:17:43.345Z,39.20
2019-04-26T16:20:11.915Z,39.20
2019-04-26T16:22:40.886Z,40.40
2019-04-26T16:25:09.159Z,40.30
2019-04-26T16:27:36.738Z,39.90
2019-04-26T16:30:28.509Z,40.40
2019-04-26T16:33:00.030Z,40.30
2019-04-26T16:35:28.456Z,39.30
2019-04-26T16:38:00.164Z,40.20
2019-04-26T16:40:28.507Z,39.60
2019-04-26T16:42:59.624Z,40.60
2019-04-26T16:45:27.462Z,40.00
2019-04-26T16:47:55.046Z,40.20
2019-04-26T16:50:31.205Z,40.50
2019-04-26T16:52:53.376Z,41.10
2019-04-26T16:55:24.256Z,40.70
2019-04-26T16:57:55.645Z,39.90
2019-04-26T17:01:22.883Z,40.20
2019-04-26T17:04:20.168Z,41.10
2019-04-26T17:06:49.477Z,41.20
2019-04-26T17:09:17.794Z,41.20
2019-04-26T17:11:45.451Z,41.70
2019-04-26T17:14:13.756Z,42.10
2019-04-26T17:16:42.395Z,42.90
2019-04-26T17:19:13.625Z,41.80
2019-04-26T17:21:43.826Z,42.50
2019-04-26T17:24:29.755Z,42.60
2019-04-26T17:27:05.474Z,42.70
2019-04-26T17:29:33.465Z,43.00
2019-04-26T17:32:02.546Z,42.80
2019-04-26T17:34:30.895Z,43.70
2019-04-26T17:37:00.119Z,44.60
2019-04-26T17:39:28.475Z,44.70
2019-04-26T17:41:56.770Z,45.10
2019-04-26T17:44:28.899Z,45.10
2019-04-26T17:47:00.264Z,46.00
2019-04-26T17:49:28.932Z,50.80
2019-04-26T17:51:58.394Z,50.00
2019-04-26T17:54:44.178Z,49.50
2019-04-26T17:56:57.316Z,50.80
2019-04-26T17:59:33.596Z,50.80
2019-04-26T18:02:04.139Z,52.60
2019-04-26T18:04:36.875Z,52.80
2019-04-26T18:07:10.926Z,52.70
2019-04-26T18:09:44.682Z,50.60
2019-04-26T18:12:03.560Z,50.90
2019-04-26T18:14:32.150Z,51.80
2019-04-26T18:17:04.372Z,52.50
2019-04-26T18:19:39.906Z,53.70
2019-04-26T18:22:12.430Z,56.40
2019-04-26T18:24:40.113Z,53.10
2019-04-26T18:27:08.387Z,53.20
2019-04-26T18:29:48.792Z,53.20
2019-04-26T18:32:17.231Z,54.20
2019-04-26T18:34:44.933Z,54.00
2019-04-26T18:37:13.452Z,54.20
2019-04-26T18:39:44.843Z,54.30
2019-04-26T18:42:13.945Z,55.70
2019-04-26T18:45:21.560Z,54.50
2019-04-26T18:53:19.577Z,57.70
2019-04-26T18:55:54.683Z,56.10
2019-04-26T19:01:42.028Z,58.10
2019-04-26T19:04:14.934Z,57.30
2019-04-26T19:06:42.160Z,56.20
2019-04-26T19:09:13.714Z,58.40
2019-04-26T19:11:43.832Z,56.90
2019-04-26T19:14:15.290Z,57.20
2019-04-26T19:17:03.728Z,59.20
2019-04-26T19:19:39.199Z,59.50
2019-04-26T19:22:13.097Z,59.70
2019-04-26T19:24:42.386Z,58.90
2019-04-26T19:27:12.353Z,58.10
2019-04-26T19:29:41.138Z,58.50
2019-04-26T19:32:11.915Z,58.90
2019-04-26T19:34:42.140Z,59.20
2019-04-26T19:37:10.515Z,61.60
2019-04-26T19:39:38.771Z,58.70
2019-04-26T19:42:07.295Z,59.30
2019-04-26T19:44:34.901Z,59.80
2019-04-26T19:47:06.697Z,59.90
2019-04-26T19:49:47.512Z,59.40
2019-04-26T19:52:39.546Z,60.50
2019-04-26T19:55:11.450Z,60.10
2019-04-26T19:58:09.677Z,60.20
2019-04-26T20:00:38.447Z,59.50
2019-04-26T20:03:08.490Z,59.90
2019-04-26T20:05:36.326Z,60.20
2019-04-26T20:08:06.153Z,60.50
2019-04-26T20:10:40.502Z,60.70
2019-04-26T20:13:07.575Z,61.00
2019-04-26T20:15:35.028Z,61.90
2019-04-26T20:18:04.123Z,62.50
2019-04-26T20:20:36.108Z,62.20
2019-04-26T20:23:05.805Z,62.20
2019-04-26T20:25:32.727Z,61.80
2019-04-26T20:28:03.245Z,62.50
2019-04-26T20:30:33.309Z,63.00
2019-04-26T20:33:01.822Z,64.70
2019-04-26T20:35:31.768Z,65.50
2019-04-26T20:38:03.374Z,63.80
2019-04-26T20:40:30.336Z,64.00
2019-04-26T20:43:05.320Z,64.30
2019-04-26T20:45:38.660Z,64.50
2019-04-26T20:47:58.647Z,63.50
2019-04-26T20:50:28.632Z,63.90
2019-04-26T20:53:00.880Z,63.70
2019-04-26T20:55:30.957Z,63.10
2019-04-26T20:57:59.717Z,63.00
2019-04-26T21:00:26.939Z,65.10
2019-04-26T21:03:01.604Z,64.10
2019-04-26T21:05:25.272Z,61.10
2019-04-26T21:07:53.714Z,60.90
2019-04-26T21:10:25.430Z,61.20
2019-04-26T21:12:54.036Z,61.80
2019-04-26T21:15:24.063Z,61.00
2019-04-26T21:17:51.867Z,61.70
2019-04-26T21:20:21.559Z,62.50
2019-04-26T21:22:52.276Z,61.50
2019-04-26T21:25:27.719Z,62.40
2019-04-26T21:28:02.478Z,62.00
2019-04-26T21:30:41.690Z,61.50
2019-04-26T21:33:17.407Z,59.50
2019-04-26T21:35:53.072Z,58.50
2019-04-26T21:38:29.921Z,60.90
2019-04-26T21:41:04.363Z,62.70
2019-04-26T21:43:34.721Z,61.20
2019-04-26T21:46:07.757Z,57.30
2019-04-26T21:48:32.759Z,57.40
2019-04-26T21:51:03.028Z,56.70
2019-04-26T21:53:31.112Z,54.80
2019-04-26T21:55:59.394Z,53.40
2019-04-26T21:58:27.732Z,52.20
2019-04-26T22:01:04.135Z,51.60
2019-04-26T22:03:32.899Z,50.80
2019-04-26T22:06:01.179Z,50.70
2019-04-26T22:08:31.108Z,50.60
2019-04-26T22:10:59.360Z,50.50
2019-04-26T22:13:41.536Z,50.50
2019-04-26T22:16:30.669Z,50.80
2019-04-26T22:18:44.378Z,50.80
2019-04-26T22:21:17.331Z,50.70
2019-04-26T22:23:51.709Z,50.70
2019-04-26T22:26:20.272Z,50.50
2019-04-26T22:28:47.875Z,50.50
2019-04-26T22:31:16.122Z,50.70
2019-04-26T22:33:44.622Z,51.10
2019-04-26T22:36:13.192Z,51.00
2019-04-26T22:38:40.863Z,51.40
2019-04-26T22:41:09.187Z,51.50
2019-04-26T22:43:39.115Z,51.70
2019-04-26T22:46:29.747Z,52.00
2019-04-26T22:49:01.512Z,52.00
2019-04-26T22:51:28.528Z,52.00
2019-04-26T22:53:57.668Z,51.80
2019-04-26T22:56:26.450Z,51.90
2019-04-26T22:58:58.479Z,52.60
2019-04-26T23:01:24.670Z,52.20
2019-04-26T23:03:53.292Z,52.20
2019-04-26T23:06:23.459Z,52.30
2019-04-26T23:08:51.779Z,52.90
2019-04-26T23:11:20.042Z,52.70
2019-04-26T23:13:53.702Z,52.70
2019-04-26T23:16:24.457Z,52.40
2019-04-26T23:19:15.295Z,52.20
2019-04-26T23:21:52.734Z,52.50
2019-04-26T23:24:17.530Z,52.50
2019-04-26T23:26:45.285Z,52.10
2019-04-26T23:29:16.998Z,51.60
2019-04-26T23:31:44.669Z,51.50
2019-04-26T23:34:14.298Z,51.50
2019-04-26T23:36:43.697Z,51.40
2019-04-26T23:39:13.253Z,51.90
2019-04-26T23:41:42.932Z,51.40
2019-04-26T23:44:13.233Z,51.70
2019-04-26T23:46:43.147Z,51.70
2019-04-26T23:49:11.510Z,51.10
2019-04-26T23:51:43.018Z,51.10
2019-04-26T23:54:10.579Z,51.00
2019-04-26T23:56:38.834Z,50.70
2019-04-26T23:59:07.126Z,51.00
